Time;durP1;ratioP1;P1;durP2;ratioP2;P2;SDS_P1;SDS_P2;PMS_P1;PMS_P2;Temp;Humidity;BMP_temperature;BMP_pressure;BME280_temperature;BME280_humidity;BME280_pressure;Samples;Min_cycle;Max_cycle;Signal;HPM_P1;HPM_P2
2023/07/29 00:00:19;;;;;;;3.15;1.27;;;;;23.90;100573.00;;;;5091200;28;20211;-81
2023/07/29 00:02:47;;;;;;;1.13;0.80;;;;;23.90;100567.00;;;;5090674;28;20201;-81
2023/07/29 00:05:14;;;;;;;0.70;0.70;;;;;23.90;100567.00;;;;5090841;28;20675;-81
2023/07/29 00:07:41;;;;;;;1.15;0.75;;;;;23.80;100559.00;;;;5090815;28;20206;-81
2023/07/29 00:10:09;;;;;;;0.82;0.60;;;;;23.80;100554.00;;;;5090257;28;20218;-81
2023/07/29 00:12:36;;;;;;;0.95;0.85;;;;;23.80;100552.00;;;;5090396;28;20229;-81
2023/07/29 00:15:06;;;;;;;1.02;0.60;;;;;23.80;100547.00;;;;5091304;28;20194;-81
2023/07/29 00:17:33;;;;;;;0.80;0.40;;;;;23.80;100548.00;;;;5090245;28;20198;-81
2023/07/29 00:20:00;;;;;;;1.65;0.50;;;;;23.80;100545.00;;;;5108489;28;20194;-81
2023/07/29 00:22:27;;;;;;;2.13;0.85;;;;;23.80;100534.00;;;;5111099;28;20198;-81
2023/07/29 00:24:57;;;;;;;0.80;0.73;;;;;23.80;100525.00;;;;5111029;28;20197;-81
2023/07/29 00:27:24;;;;;;;1.60;0.80;;;;;23.70;100517.00;;;;5111066;28;20691;-80
2023/07/29 00:29:51;;;;;;;1.08;0.80;;;;;23.70;100529.00;;;;5110204;28;20212;-81
2023/07/29 00:32:20;;;;;;;1.10;0.70;;;;;23.70;100540.00;;;;5107217;28;20210;-81
2023/07/29 00:34:47;;;;;;;2.17;1.10;;;;;23.70;100550.00;;;;5089910;28;20659;-81
2023/07/29 00:37:14;;;;;;;1.48;0.60;;;;;23.70;100546.00;;;;5090091;28;20233;-80
2023/07/29 00:39:41;;;;;;;2.10;1.02;;;;;23.60;100555.00;;;;5090259;28;20241;-81
2023/07/29 00:42:09;;;;;;;3.97;0.82;;;;;23.70;100551.00;;;;5089476;28;20229;-81
2023/07/29 00:44:37;;;;;;;1.27;0.85;;;;;23.60;100551.00;;;;5089966;28;20194;-81
2023/07/29 00:47:05;;;;;;;1.63;0.90;;;;;23.60;100551.00;;;;5096648;28;20198;-81
2023/07/29 00:49:34;;;;;;;2.90;1.10;;;;;23.60;100548.00;;;;5108116;28;20232;-81
2023/07/29 00:52:01;;;;;;;4.57;1.67;;;;;23.60;100535.00;;;;5110302;28;20201;-81
2023/07/29 00:54:29;;;;;;;1.65;0.90;;;;;23.60;100522.00;;;;5109429;28;20198;-81
2023/07/29 00:56:56;;;;;;;1.20;0.82;;;;;23.60;100523.00;;;;5110257;28;20221;-81
2023/07/29 00:59:24;;;;;;;0.98;0.70;;;;;23.60;100518.00;;;;5110256;28;20206;-81
2023/07/29 01:01:51;;;;;;;1.35;0.68;;;;;23.60;100516.00;;;;5110286;28;20197;-81
2023/07/29 01:04:18;;;;;;;1.30;0.70;;;;;23.60;100524.00;;;;5110154;28;20208;-81
2023/07/29 01:06:54;;;;;;;1.77;0.80;;;;;23.50;100526.00;;;;5108772;28;20208;-81
2023/07/29 01:09:31;;;;;;;1.13;0.80;;;;;23.60;100527.00;;;;5109546;28;20593;-81
2023/07/29 01:12:07;;;;;;;1.10;0.60;;;;;23.50;100526.00;;;;5109986;28;20228;-81
2023/07/29 01:14:42;;;;;;;0.73;0.55;;;;;23.50;100526.00;;;;5109438;28;20193;-81
2023/07/29 01:17:18;;;;;;;1.15;0.70;;;;;23.50;100531.00;;;;5109814;28;20225;-81
2023/07/29 01:19:56;;;;;;;1.05;0.70;;;;;23.50;100524.00;;;;5109524;28;20200;-81
2023/07/29 01:22:26;;;;;;;1.23;0.90;;;;;23.50;100522.00;;;;5109475;28;20198;-81
2023/07/29 01:24:54;;;;;;;1.40;0.73;;;;;23.50;100521.00;;;;5091510;28;20218;-81
2023/07/29 01:27:22;;;;;;;1.10;0.80;;;;;23.50;100527.00;;;;5088932;28;20694;-81
2023/07/29 01:29:49;;;;;;;1.25;0.77;;;;;23.50;100531.00;;;;5088989;28;20210;-81
2023/07/29 01:32:21;;;;;;;1.00;0.90;;;;;23.50;100529.00;;;;5089216;28;20194;-81
2023/07/29 01:34:54;;;;;;;1.58;0.80;;;;;23.50;100524.00;;;;5088594;28;20549;-81
2023/07/29 01:37:33;;;;;;;2.83;1.00;;;;;23.40;100522.00;;;;5089143;28;20230;-81
2023/07/29 01:40:03;;;;;;;1.48;0.98;;;;;23.50;100522.00;;;;5090228;28;20193;-81
2023/07/29 01:42:30;;;;;;;4.32;1.00;;;;;23.50;100516.00;;;;5088283;28;20206;-81
2023/07/29 01:44:58;;;;;;;1.98;0.93;;;;;23.40;100516.00;;;;5089108;28;20205;-81
2023/07/29 01:47:25;;;;;;;0.82;0.70;;;;;23.40;100516.00;;;;5089245;28;20209;-82
2023/07/29 01:49:52;;;;;;;1.23;1.00;;;;;23.40;100516.00;;;;5095152;28;20772;-81
2023/07/29 01:52:20;;;;;;;1.35;1.10;;;;;23.40;100509.00;;;;5109222;28;20198;-81
2023/07/29 01:54:47;;;;;;;2.20;1.15;;;;;23.40;100506.00;;;;5108681;28;20205;-81
2023/07/29 01:57:16;;;;;;;1.20;1.10;;;;;23.40;100504.00;;;;5105671;28;20241;-81
2023/07/29 01:59:43;;;;;;;2.90;1.15;;;;;23.40;100504.00;;;;5087229;28;20209;-81
2023/07/29 02:02:10;;;;;;;3.03;1.45;;;;;23.40;100504.00;;;;5105770;28;20197;-81
2023/07/29 02:04:38;;;;;;;3.25;1.33;;;;;23.40;100506.00;;;;5108678;28;20208;-81
2023/07/29 02:07:05;;;;;;;1.10;0.88;;;;;23.40;100506.00;;;;5108945;28;20205;-81
2023/07/29 02:09:32;;;;;;;1.80;1.13;;;;;23.40;100508.00;;;;5108415;28;20712;-81
2023/07/29 02:12:00;;;;;;;1.70;1.20;;;;;23.40;100495.00;;;;5108324;28;20229;-82
2023/07/29 02:14:28;;;;;;;1.95;1.25;;;;;23.40;100499.00;;;;5107963;28;20204;-81
2023/07/29 02:16:55;;;;;;;1.70;1.08;;;;;23.40;100507.00;;;;5108391;28;20221;-81
2023/07/29 02:19:23;;;;;;;3.13;1.10;;;;;23.40;100499.00;;;;5108713;28;20547;-81
2023/07/29 02:21:50;;;;;;;2.05;1.20;;;;;23.40;100499.00;;;;5108676;28;20193;-81
2023/07/29 02:24:17;;;;;;;3.10;1.33;;;;;23.40;100494.00;;;;5108298;28;20281;-81
2023/07/29 02:26:45;;;;;;;1.83;1.33;;;;;23.30;100490.00;;;;5109243;28;20226;-81
2023/07/29 02:29:12;;;;;;;1.95;1.15;;;;;23.30;100497.00;;;;5108677;28;20197;-81
2023/07/29 02:31:40;;;;;;;1.83;1.42;;;;;23.30;100505.00;;;;5101639;28;20210;-81
2023/07/29 02:34:08;;;;;;;2.28;1.65;;;;;23.30;100498.00;;;;5088601;28;20209;-81
2023/07/29 02:36:35;;;;;;;2.60;1.63;;;;;23.30;100488.00;;;;5087753;28;20222;-81
2023/07/29 02:39:02;;;;;;;2.03;1.52;;;;;23.30;100488.00;;;;5088451;28;20754;-82
2023/07/29 02:41:29;;;;;;;3.28;1.80;;;;;23.30;100486.00;;;;5087403;28;20698;-81
2023/07/29 02:43:57;;;;;;;3.65;2.28;;;;;23.30;100486.00;;;;5088412;28;20198;-82
2023/07/29 02:46:24;;;;;;;2.55;1.70;;;;;23.30;100487.00;;;;5087995;28;20202;-81
2023/07/29 02:48:53;;;;;;;3.35;2.15;;;;;23.30;100477.00;;;;5089812;28;20747;-81
2023/07/29 02:51:20;;;;;;;2.88;1.60;;;;;23.30;100477.00;;;;5106418;28;20212;-81
2023/07/29 02:53:47;;;;;;;3.15;1.67;;;;;23.30;100485.00;;;;5108292;28;20675;-81
2023/07/29 02:56:14;;;;;;;2.88;2.15;;;;;23.30;100480.00;;;;5107879;28;20198;-82
2023/07/29 02:58:41;;;;;;;3.20;2.10;;;;;23.30;100486.00;;;;5107477;28;20197;-81
2023/07/29 03:01:09;;;;;;;2.50;2.03;;;;;23.30;100489.00;;;;5108148;28;20193;-81
2023/07/29 03:03:36;;;;;;;3.60;1.65;;;;;23.30;100472.00;;;;5107733;28;20659;-81
2023/07/29 03:06:06;;;;;;;4.07;1.92;;;;;23.30;100474.00;;;;5097729;28;20213;-81
2023/07/29 03:08:34;;;;;;;2.40;1.73;;;;;23.30;100471.00;;;;5087527;28;20207;-81
2023/07/29 03:11:07;;;;;;;2.90;1.90;;;;;23.20;100467.00;;;;5087405;28;20766;-81
2023/07/29 03:13:34;;;;;;;4.38;2.40;;;;;23.30;100469.00;;;;5091806;28;20206;-81
2023/07/29 03:16:06;;;;;;;3.30;1.77;;;;;23.20;100465.00;;;;5092479;28;20202;-81
2023/07/29 03:18:34;;;;;;;3.53;1.30;;;;;23.30;100468.00;;;;5091681;28;20205;-81
2023/07/29 03:21:01;;;;;;;1.60;1.50;;;;;23.20;100475.00;;;;5104589;28;20251;-81
2023/07/29 03:23:31;;;;;;;2.22;1.63;;;;;23.20;100472.00;;;;5110965;28;20212;-81
2023/07/29 03:25:59;;;;;;;1.88;1.67;;;;;23.30;100475.00;;;;5112146;28;20201;-81
2023/07/29 03:28:28;;;;;;;3.95;1.60;;;;;23.30;100472.00;;;;5111535;28;20582;-81
2023/07/29 03:30:55;;;;;;;1.70;1.50;;;;;23.30;100477.00;;;;5112060;28;20203;-81
2023/07/29 03:33:23;;;;;;;3.00;1.70;;;;;23.20;100475.00;;;;5112040;28;20205;-81
2023/07/29 03:35:50;;;;;;;2.75;1.83;;;;;23.20;100471.00;;;;5111131;28;20708;-81
2023/07/29 03:38:18;;;;;;;2.22;1.58;;;;;23.20;100469.00;;;;5111577;28;20707;-81
2023/07/29 03:40:47;;;;;;;2.40;1.90;;;;;23.20;100472.00;;;;5095123;28;20213;-81
2023/07/29 03:43:14;;;;;;;3.15;1.35;;;;;23.20;100473.00;;;;5090943;28;20324;-81
2023/07/29 03:45:42;;;;;;;2.08;1.35;;;;;23.20;100481.00;;;;5091383;28;20198;-81
2023/07/29 03:48:09;;;;;;;2.30;1.77;;;;;23.20;100477.00;;;;5091497;28;20198;-81
2023/07/29 03:50:37;;;;;;;2.83;1.83;;;;;23.20;100483.00;;;;5103100;28;20212;-81
2023/07/29 03:53:05;;;;;;;2.40;1.60;;;;;23.20;100484.00;;;;5112104;28;20210;-81
2023/07/29 03:55:32;;;;;;;2.03;1.48;;;;;23.20;100482.00;;;;5111615;28;20201;-83
2023/07/29 03:58:01;;;;;;;1.98;1.40;;;;;23.20;100489.00;;;;5109864;28;20236;-83
2023/07/29 04:00:29;;;;;;;1.58;1.08;;;;;23.20;100484.00;;;;5111331;28;20745;-82
2023/07/29 04:02:56;;;;;;;1.77;1.45;;;;;23.20;100481.00;;;;5111463;28;20197;-82
2023/07/29 04:05:23;;;;;;;2.97;1.52;;;;;23.20;100487.00;;;;5110376;28;20185;-82
2023/07/29 04:07:51;;;;;;;2.20;1.52;;;;;23.10;100491.00;;;;5111286;28;20202;-82
2023/07/29 04:10:18;;;;;;;2.65;1.42;;;;;23.10;100489.00;;;;5111236;28;20702;-82
2023/07/29 04:12:45;;;;;;;3.47;1.35;;;;;23.10;100485.00;;;;5110987;28;20225;-83
2023/07/29 04:15:14;;;;;;;2.60;1.65;;;;;23.10;100475.00;;;;5110438;28;20544;-82
2023/07/29 04:17:41;;;;;;;1.90;1.27;;;;;23.10;100465.00;;;;5110051;28;20225;-82
2023/07/29 04:20:10;;;;;;;2.20;1.33;;;;;23.10;100469.00;;;;5110851;28;20194;-82
2023/07/29 04:22:37;;;;;;;2.83;1.73;;;;;23.10;100462.00;;;;5109957;28;20209;-82
2023/07/29 04:25:05;;;;;;;3.55;1.55;;;;;23.10;100470.00;;;;5110969;28;20201;-82
2023/07/29 04:27:32;;;;;;;2.00;1.38;;;;;23.10;100467.00;;;;5110879;28;20204;-82
2023/07/29 04:30:00;;;;;;;2.03;1.38;;;;;23.10;100475.00;;;;5108978;28;20198;-82
2023/07/29 04:32:28;;;;;;;2.30;1.23;;;;;23.10;100472.00;;;;5090327;28;20201;-82
2023/07/29 04:34:55;;;;;;;2.10;1.35;;;;;23.10;100476.00;;;;5090133;28;20202;-82
2023/07/29 04:37:23;;;;;;;1.50;1.10;;;;;23.10;100485.00;;;;5090323;28;20230;-82
2023/07/29 04:39:50;;;;;;;1.23;1.05;;;;;23.10;100477.00;;;;5090095;28;20202;-82
2023/07/29 04:42:18;;;;;;;1.27;1.15;;;;;23.10;100482.00;;;;5089416;28;20593;-82
2023/07/29 04:44:45;;;;;;;1.77;1.27;;;;;23.10;100482.00;;;;5090628;28;20202;-82
2023/07/29 04:47:12;;;;;;;3.83;1.38;;;;;23.10;100484.00;;;;5091163;28;20210;-82
2023/07/29 04:49:41;;;;;;;1.30;1.08;;;;;23.00;100488.00;;;;5089842;28;20533;-82
2023/07/29 04:52:08;;;;;;;2.30;1.50;;;;;23.00;100485.00;;;;5094990;28;20201;-82
2023/07/29 04:54:35;;;;;;;2.22;1.42;;;;;23.00;100490.00;;;;5109861;28;20584;-83
2023/07/29 04:57:03;;;;;;;2.67;1.67;;;;;23.00;100495.00;;;;5109586;28;20217;-82
2023/07/29 04:59:30;;;;;;;2.10;1.55;;;;;23.00;100494.00;;;;5110411;28;20198;-82
2023/07/29 05:01:57;;;;;;;4.07;1.25;;;;;23.00;100493.00;;;;5110806;28;20193;-82
2023/07/29 05:04:25;;;;;;;2.13;1.42;;;;;23.00;100490.00;;;;5105033;28;20711;-82
2023/07/29 05:06:54;;;;;;;1.42;1.20;;;;;23.00;100500.00;;;;5089823;28;20201;-82
2023/07/29 05:09:21;;;;;;;2.95;1.48;;;;;23.10;100509.00;;;;5089388;28;20218;-82
2023/07/29 05:11:49;;;;;;;2.15;1.55;;;;;23.10;100505.00;;;;5089622;28;20560;-82
2023/07/29 05:14:18;;;;;;;2.92;1.70;;;;;23.10;100503.00;;;;5089180;28;20202;-82
2023/07/29 05:16:46;;;;;;;2.85;1.35;;;;;23.10;100499.00;;;;5089323;28;20591;-82
2023/07/29 05:19:13;;;;;;;1.65;1.05;;;;;23.10;100495.00;;;;5089783;28;20695;-83
2023/07/29 05:21:41;;;;;;;2.67;1.38;;;;;23.10;100493.00;;;;5106718;28;20201;-82
2023/07/29 05:24:09;;;;;;;1.75;1.30;;;;;23.10;100496.00;;;;5108820;28;20198;-83
2023/07/29 05:26:36;;;;;;;2.08;1.33;;;;;23.10;100502.00;;;;5109162;28;20200;-82
2023/07/29 05:29:05;;;;;;;1.95;1.38;;;;;23.10;100498.00;;;;5109906;28;20205;-82
2023/07/29 05:31:32;;;;;;;3.08;1.88;;;;;23.10;100498.00;;;;5109807;28;20304;-82
2023/07/29 05:33:59;;;;;;;2.45;1.35;;;;;23.10;100509.00;;;;5109255;28;20288;-82
2023/07/29 05:36:27;;;;;;;2.42;1.67;;;;;23.10;100510.00;;;;5108635;28;20224;-83
2023/07/29 05:38:54;;;;;;;2.97;2.25;;;;;23.10;100510.00;;;;5099997;28;20233;-82
2023/07/29 05:41:23;;;;;;;2.10;1.60;;;;;23.20;100516.00;;;;5089185;28;20190;-83
2023/07/29 05:43:50;;;;;;;2.58;1.33;;;;;23.20;100507.00;;;;5088439;28;20202;-83
2023/07/29 05:46:17;;;;;;;2.50;1.38;;;;;23.20;100506.00;;;;5088889;28;20202;-82
2023/07/29 05:48:44;;;;;;;3.33;1.92;;;;;23.20;100512.00;;;;5088592;28;20697;-82
2023/07/29 05:51:12;;;;;;;2.17;1.63;;;;;23.20;100516.00;;;;5089844;28;20691;-82
2023/07/29 05:53:39;;;;;;;2.65;1.60;;;;;23.30;100508.00;;;;5106343;28;20209;-82
2023/07/29 05:56:06;;;;;;;2.28;1.58;;;;;23.30;100503.00;;;;5099107;28;20209;-82
2023/07/29 05:58:35;;;;;;;2.58;1.50;;;;;23.30;100507.00;;;;5088474;28;20228;-82
2023/07/29 06:01:02;;;;;;;2.70;2.10;;;;;23.30;100514.00;;;;5088435;28;20198;-83
2023/07/29 06:03:29;;;;;;;2.75;1.80;;;;;23.40;100512.00;;;;5088188;28;20199;-83
2023/07/29 06:05:56;;;;;;;2.30;1.80;;;;;23.40;100504.00;;;;5088563;28;20572;-82
2023/07/29 06:08:24;;;;;;;2.78;1.73;;;;;23.50;100504.00;;;;5088495;28;20209;-82
2023/07/29 06:10:51;;;;;;;4.05;1.75;;;;;23.50;100505.00;;;;5088145;28;20218;-82
2023/07/29 06:13:18;;;;;;;3.40;1.95;;;;;23.50;100496.00;;;;5089076;28;20279;-83
2023/07/29 06:15:47;;;;;;;3.08;1.75;;;;;23.60;100498.00;;;;5087611;28;20663;-82
2023/07/29 06:18:14;;;;;;;2.17;1.60;;;;;23.60;100509.00;;;;5089000;28;20221;-82
2023/07/29 06:20:41;;;;;;;2.85;1.80;;;;;23.70;100518.00;;;;5087796;28;20650;-82
2023/07/29 06:23:10;;;;;;;3.45;1.98;;;;;23.70;100518.00;;;;5105978;28;20331;-82
2023/07/29 06:25:37;;;;;;;2.90;2.08;;;;;23.80;100512.00;;;;5107877;28;20208;-82
2023/07/29 06:28:04;;;;;;;2.47;1.88;;;;;23.80;100520.00;;;;5108132;28;20581;-83
2023/07/29 06:30:31;;;;;;;1.85;1.42;;;;;23.90;100518.00;;;;5093618;28;20214;-82
2023/07/29 06:33:00;;;;;;;4.13;1.90;;;;;23.90;100509.00;;;;5088235;28;20194;-82
2023/07/29 06:35:27;;;;;;;2.42;1.50;;;;;24.00;100516.00;;;;5088677;28;20209;-82
2023/07/29 06:37:55;;;;;;;3.80;2.10;;;;;24.00;100517.00;;;;5088501;28;20222;-82
2023/07/29 06:40:22;;;;;;;3.25;2.25;;;;;24.00;100518.00;;;;5088260;28;20206;-84
2023/07/29 06:42:49;;;;;;;2.58;2.15;;;;;24.10;100518.00;;;;5088077;28;20562;-83
2023/07/29 06:45:16;;;;;;;3.05;2.22;;;;;24.10;100515.00;;;;5087615;28;20201;-82
2023/07/29 06:47:44;;;;;;;5.68;2.35;;;;;24.20;100519.00;;;;5087665;28;20214;-82
2023/07/29 06:50:12;;;;;;;2.90;1.83;;;;;24.20;100520.00;;;;5088083;28;20684;-83
2023/07/29 06:52:40;;;;;;;4.68;2.22;;;;;24.20;100523.00;;;;5097061;28;20239;-82
2023/07/29 06:55:08;;;;;;;2.80;2.15;;;;;24.30;100521.00;;;;5108547;28;20223;-82
2023/07/29 06:57:35;;;;;;;3.25;2.58;;;;;24.30;100520.00;;;;5107856;28;20225;-82
2023/07/29 07:00:03;;;;;;;2.17;1.92;;;;;24.40;100522.00;;;;5108662;28;20197;-81
2023/07/29 07:02:31;;;;;;;2.88;1.90;;;;;24.40;100522.00;;;;5108139;28;20206;-82
2023/07/29 07:04:58;;;;;;;4.40;2.35;;;;;24.40;100532.00;;;;5107514;28;20216;-83
2023/07/29 07:07:26;;;;;;;3.15;1.65;;;;;24.40;100530.00;;;;5108464;28;20209;-82
2023/07/29 07:09:54;;;;;;;3.25;1.92;;;;;24.40;100534.00;;;;5107418;28;20658;-83
2023/07/29 07:12:21;;;;;;;4.70;2.25;;;;;24.50;100528.00;;;;5107895;28;20816;-83
2023/07/29 07:14:49;;;;;;;2.70;1.92;;;;;24.50;100530.00;;;;5108260;28;20387;-82
2023/07/29 07:17:16;;;;;;;3.05;2.40;;;;;24.50;100532.00;;;;5108877;28;20194;-83
2023/07/29 07:19:43;;;;;;;3.60;2.58;;;;;24.50;100533.00;;;;5107220;28;20229;-84
2023/07/29 07:22:11;;;;;;;2.63;2.42;;;;;24.50;100533.00;;;;5107316;28;20204;-82
2023/07/29 07:24:39;;;;;;;3.40;2.13;;;;;24.50;100538.00;;;;5107495;28;20682;-82
2023/07/29 07:27:07;;;;;;;3.70;2.47;;;;;24.50;100542.00;;;;5107881;28;20667;-82
2023/07/29 07:29:34;;;;;;;4.95;2.63;;;;;24.60;100545.00;;;;5107501;28;20202;-82
2023/07/29 07:32:02;;;;;;;2.10;1.88;;;;;24.60;100540.00;;;;5107916;28;20216;-81
2023/07/29 07:34:29;;;;;;;2.20;2.00;;;;;24.60;100545.00;;;;5107890;28;20300;-81
2023/07/29 07:36:56;;;;;;;4.00;2.50;;;;;24.60;100545.00;;;;5107365;28;20197;-81
2023/07/29 07:39:23;;;;;;;4.82;2.08;;;;;24.60;100543.00;;;;5087128;28;20230;-82
2023/07/29 07:41:52;;;;;;;3.00;2.28;;;;;24.60;100542.00;;;;5087284;28;20195;-82
2023/07/29 07:44:20;;;;;;;4.47;2.25;;;;;24.70;100533.00;;;;5088038;28;20206;-82
2023/07/29 07:46:47;;;;;;;3.38;2.55;;;;;24.70;100544.00;;;;5088140;28;20190;-82
2023/07/29 07:49:14;;;;;;;3.83;2.40;;;;;24.70;100545.00;;;;5087666;28;20252;-81
2023/07/29 07:51:44;;;;;;;5.82;2.67;;;;;24.70;100542.00;;;;5087307;28;20284;-82
2023/07/29 07:54:11;;;;;;;2.45;2.15;;;;;24.70;100532.00;;;;5107305;28;20206;-83
2023/07/29 07:56:38;;;;;;;2.35;2.03;;;;;24.70;100550.00;;;;5107684;28;20206;-81
2023/07/29 07:59:07;;;;;;;5.13;2.45;;;;;24.80;100548.00;;;;5110897;28;20232;-80
2023/07/29 08:01:36;;;;;;;2.22;1.63;;;;;24.80;100548.00;;;;5110545;28;20190;-81
2023/07/29 08:04:04;;;;;;;2.10;1.90;;;;;24.80;100558.00;;;;5111743;28;20201;-81
2023/07/29 08:06:31;;;;;;;2.83;2.10;;;;;24.90;100547.00;;;;5110532;28;20201;-81
2023/07/29 08:08:59;;;;;;;2.08;1.88;;;;;24.90;100552.00;;;;5110721;28;20198;-82
2023/07/29 08:11:27;;;;;;;2.92;1.98;;;;;25.00;100546.00;;;;5109826;28;20589;-81
2023/07/29 08:13:54;;;;;;;2.72;1.50;;;;;25.10;100545.00;;;;5110895;28;20212;-81
2023/07/29 08:16:22;;;;;;;2.47;1.85;;;;;25.20;100548.00;;;;5111112;28;20674;-82
2023/07/29 08:18:50;;;;;;;4.03;1.48;;;;;25.20;100554.00;;;;5110740;28;20228;-81
2023/07/29 08:21:17;;;;;;;1.50;1.40;;;;;25.30;100552.00;;;;5110804;28;20404;-82
2023/07/29 08:23:44;;;;;;;1.92;1.60;;;;;25.30;100553.00;;;;5110408;28;20214;-82
2023/07/29 08:26:11;;;;;;;3.63;1.45;;;;;25.30;100555.00;;;;5110700;28;20256;-82
2023/07/29 08:28:40;;;;;;;4.47;1.75;;;;;25.30;100544.00;;;;5103575;28;20668;-82
2023/07/29 08:31:08;;;;;;;1.35;1.25;;;;;25.40;100562.00;;;;5090506;28;20213;-81
2023/07/29 08:33:37;;;;;;;2.08;1.77;;;;;25.40;100558.00;;;;5089409;28;20305;-82
2023/07/29 08:36:05;;;;;;;2.63;1.20;;;;;25.50;100553.00;;;;5090522;28;20202;-82
2023/07/29 08:38:32;;;;;;;3.22;1.80;;;;;25.50;100562.00;;;;5089906;28;20267;-82
2023/07/29 08:41:07;;;;;;;1.70;1.33;;;;;25.50;100551.00;;;;5090199;28;20190;-82
2023/07/29 08:43:35;;;;;;;2.72;1.30;;;;;25.60;100557.00;;;;5089759;28;20209;-81
2023/07/29 08:46:03;;;;;;;3.50;2.05;;;;;25.60;100559.00;;;;5090572;28;20237;-82
2023/07/29 08:48:37;;;;;;;2.80;2.40;;;;;25.60;100556.00;;;;5089915;28;20206;-82
2023/07/29 08:51:06;;;;;;;3.30;2.03;;;;;25.60;100554.00;;;;5090073;28;20202;-82
2023/07/29 08:53:33;;;;;;;2.35;2.10;;;;;25.60;100559.00;;;;5095642;28;20193;-83
2023/07/29 08:56:01;;;;;;;2.10;1.85;;;;;25.70;100555.00;;;;5110106;28;20560;-82
2023/07/29 08:58:29;;;;;;;3.10;2.28;;;;;25.80;100554.00;;;;5109932;28;20221;-81
2023/07/29 09:00:56;;;;;;;2.03;1.83;;;;;25.90;100555.00;;;;5110049;28;20200;-82
2023/07/29 09:03:24;;;;;;;5.13;2.53;;;;;26.00;100555.00;;;;5097015;28;20201;-83
2023/07/29 09:05:53;;;;;;;1.98;1.58;;;;;26.10;100562.00;;;;5089790;28;20209;-83
2023/07/29 09:08:22;;;;;;;2.30;1.52;;;;;26.10;100557.00;;;;5088635;28;20575;-82
2023/07/29 09:10:50;;;;;;;2.55;1.80;;;;;26.30;100563.00;;;;5088860;28;20210;-82
2023/07/29 09:13:17;;;;;;;2.15;1.92;;;;;26.30;100555.00;;;;5089370;28;20226;-82
2023/07/29 09:15:45;;;;;;;2.45;1.70;;;;;26.40;100560.00;;;;5088857;28;20668;-81
2023/07/29 09:18:13;;;;;;;4.50;1.88;;;;;26.50;100556.00;;;;5090115;28;20221;-82
2023/07/29 09:20:40;;;;;;;2.30;2.10;;;;;26.60;100565.00;;;;5089584;28;20211;-81
2023/07/29 09:23:10;;;;;;;3.03;2.00;;;;;26.60;100565.00;;;;5095567;28;20205;-84
2023/07/29 09:25:40;;;;;;;2.10;1.90;;;;;26.70;100555.00;;;;5110183;28;20259;-82
2023/07/29 09:28:11;;;;;;;2.47;2.28;;;;;26.70;100560.00;;;;5109481;28;20667;-83
2023/07/29 09:30:39;;;;;;;2.55;2.35;;;;;26.80;100559.00;;;;5109108;28;20624;-83
2023/07/29 09:33:07;;;;;;;3.08;2.00;;;;;26.90;100555.00;;;;5109596;28;20284;-81
2023/07/29 09:35:36;;;;;;;2.53;1.50;;;;;26.90;100561.00;;;;5109121;28;20206;-82
2023/07/29 09:38:03;;;;;;;1.85;1.73;;;;;27.00;100562.00;;;;5090057;28;20206;-82
2023/07/29 09:40:38;;;;;;;2.83;1.52;;;;;27.00;100568.00;;;;5088934;28;20229;-82
2023/07/29 09:43:06;;;;;;;1.48;1.27;;;;;27.00;100549.00;;;;5088532;28;20196;-81
2023/07/29 09:45:35;;;;;;;1.67;1.55;;;;;27.00;100555.00;;;;5088911;28;20206;-82
2023/07/29 09:48:04;;;;;;;1.63;1.52;;;;;27.10;100555.00;;;;5089249;28;20256;-81
2023/07/29 09:50:32;;;;;;;2.03;1.83;;;;;27.10;100549.00;;;;5088762;28;20217;-82
2023/07/29 09:52:59;;;;;;;1.95;1.42;;;;;27.10;100551.00;;;;5089032;28;20690;-82
2023/07/29 09:55:27;;;;;;;1.23;1.13;;;;;27.10;100546.00;;;;5089209;28;20668;-81
2023/07/29 09:58:01;;;;;;;2.17;1.10;;;;;27.20;100554.00;;;;5088565;28;20643;-81
2023/07/29 10:00:28;;;;;;;2.13;1.33;;;;;27.30;100550.00;;;;5088909;28;20268;-83
2023/07/29 10:02:56;;;;;;;1.63;1.45;;;;;27.30;100556.00;;;;5088772;28;20634;-84
2023/07/29 10:05:24;;;;;;;2.30;1.20;;;;;27.30;100556.00;;;;5087799;28;20194;-84
2023/07/29 10:07:51;;;;;;;1.25;1.00;;;;;27.40;100566.00;;;;5088840;28;20198;-83
2023/07/29 10:10:19;;;;;;;1.13;1.02;;;;;27.40;100557.00;;;;5089167;28;20249;-82
2023/07/29 10:12:46;;;;;;;1.10;1.00;;;;;27.40;100562.00;;;;5087154;28;20606;-82
2023/07/29 10:15:15;;;;;;;1.98;0.98;;;;;27.40;100562.00;;;;5088965;28;20202;-82
2023/07/29 10:17:42;;;;;;;1.85;1.05;;;;;27.50;100563.00;;;;5087958;28;20624;-82
2023/07/29 10:20:11;;;;;;;1.35;1.25;;;;;27.40;100569.00;;;;5088124;28;20218;-83
2023/07/29 10:22:41;;;;;;;1.10;0.85;;;;;27.40;100566.00;;;;5090497;28;20201;-83
2023/07/29 10:25:15;;;;;;;0.60;0.60;;;;;27.40;100563.00;;;;5087927;28;20683;-84
2023/07/29 10:27:47;;;;;;;1.05;0.80;;;;;27.40;100567.00;;;;5087976;28;20202;-81
2023/07/29 10:30:16;;;;;;;1.02;0.80;;;;;27.40;100567.00;;;;5088186;28;20202;-82
2023/07/29 10:32:45;;;;;;;2.40;0.68;;;;;27.40;100573.00;;;;5087522;28;20210;-82
2023/07/29 10:35:13;;;;;;;1.70;0.55;;;;;27.50;100573.00;;;;5088490;28;20194;-82
2023/07/29 10:37:41;;;;;;;1.00;0.70;;;;;27.40;100578.00;;;;5088476;28;20214;-81
2023/07/29 10:40:10;;;;;;;0.85;0.77;;;;;27.40;100587.00;;;;5087979;28;20226;-82
2023/07/29 10:42:38;;;;;;;1.05;0.80;;;;;27.30;100574.00;;;;5086801;28;20226;-81
2023/07/29 10:45:23;;;;;;;1.58;1.00;;;;;27.20;100572.00;;;;5088813;28;20197;-82
2023/07/29 10:47:50;;;;;;;0.68;0.57;;;;;27.20;100581.00;;;;5088281;28;20202;-82
2023/07/29 10:50:22;;;;;;;1.25;0.95;;;;;27.10;100579.00;;;;5088216;28;20568;-81
2023/07/29 10:52:53;;;;;;;1.30;1.20;;;;;27.00;100583.00;;;;5087801;28;20217;-81
2023/07/29 10:55:32;;;;;;;1.58;0.93;;;;;26.90;100583.00;;;;5107784;28;20208;-80
2023/07/29 10:58:08;;;;;;;1.45;0.95;;;;;26.90;100587.00;;;;5108357;28;20212;-81
2023/07/29 11:00:37;;;;;;;1.15;1.02;;;;;26.90;100586.00;;;;5107756;28;20224;-80
2023/07/29 11:03:06;;;;;;;1.13;0.70;;;;;26.90;100577.00;;;;5107708;28;20201;-80
2023/07/29 11:05:45;;;;;;;1.33;0.98;;;;;26.80;100586.00;;;;5107267;28;20205;-80
2023/07/29 11:08:23;;;;;;;1.48;0.90;;;;;26.80;100592.00;;;;5108391;28;20197;-81
2023/07/29 11:11:02;;;;;;;1.75;1.00;;;;;26.70;100588.00;;;;5107992;28;20647;-80
2023/07/29 11:13:30;;;;;;;1.27;0.68;;;;;26.80;100598.00;;;;5107233;28;20229;-80
2023/07/29 11:16:01;;;;;;;0.90;0.80;;;;;26.70;100602.00;;;;5107480;28;20643;-79
2023/07/29 11:18:30;;;;;;;1.40;1.02;;;;;26.70;100591.00;;;;5106982;28;20286;-81
2023/07/29 11:20:58;;;;;;;1.10;1.00;;;;;26.60;100593.00;;;;5108207;28;20705;-80
2023/07/29 11:23:33;;;;;;;1.05;0.95;;;;;26.50;100598.00;;;;5107579;28;20209;-80
2023/07/29 11:26:01;;;;;;;1.33;0.80;;;;;26.50;100594.00;;;;5107656;28;20200;-80
2023/07/29 11:28:29;;;;;;;1.55;1.40;;;;;26.40;100592.00;;;;5107782;28;20210;-80
2023/07/29 11:30:58;;;;;;;1.73;1.23;;;;;26.40;100596.00;;;;5108022;28;20694;-80
2023/07/29 11:33:28;;;;;;;1.23;1.10;;;;;26.30;100593.00;;;;5110570;28;20307;-80
2023/07/29 11:35:55;;;;;;;1.70;1.40;;;;;26.30;100594.00;;;;5102053;28;20667;-80
2023/07/29 11:38:23;;;;;;;1.35;1.20;;;;;26.20;100594.00;;;;5091341;28;20657;-80
2023/07/29 11:40:57;;;;;;;1.35;1.25;;;;;26.00;100593.00;;;;5091402;28;20616;-81
2023/07/29 11:43:25;;;;;;;1.65;1.02;;;;;26.00;100595.00;;;;5090908;28;20310;-81
2023/07/29 11:45:53;;;;;;;1.73;1.15;;;;;26.00;100581.00;;;;5091215;28;20221;-82
2023/07/29 11:48:28;;;;;;;1.42;0.90;;;;;25.80;100579.00;;;;5091162;28;20234;-82
2023/07/29 11:50:55;;;;;;;2.20;0.98;;;;;25.90;100580.00;;;;5091723;28;20202;-82
2023/07/29 11:53:23;;;;;;;1.30;1.17;;;;;25.90;100579.00;;;;5096065;28;20209;-82
2023/07/29 11:55:52;;;;;;;1.35;1.00;;;;;25.90;100580.00;;;;5110980;28;20422;-82
2023/07/29 11:58:21;;;;;;;1.58;0.90;;;;;25.90;100589.00;;;;5111295;28;20197;-81
2023/07/29 12:00:49;;;;;;;1.85;1.30;;;;;25.80;100588.00;;;;5111427;28;20225;-81
2023/07/29 12:03:17;;;;;;;1.35;1.02;;;;;25.80;100594.00;;;;5111301;28;20189;-81
2023/07/29 12:05:46;;;;;;;1.20;0.98;;;;;25.80;100596.00;;;;5110707;28;20194;-82
2023/07/29 12:08:14;;;;;;;1.30;1.10;;;;;25.80;100592.00;;;;5111307;28;20679;-82
2023/07/29 12:10:41;;;;;;;1.35;1.02;;;;;25.90;100598.00;;;;5094877;28;20345;-82
2023/07/29 12:13:10;;;;;;;1.52;0.85;;;;;25.90;100594.00;;;;5090409;28;20727;-81